Time;durP1;ratioP1;P1;durP2;ratioP2;P2;SDS_P1;SDS_P2;PMS_P1;PMS_P2;Temp;Humidity;BMP_temperature;BMP_pressure;BME280_temperature;BME280_humidity;BME280_pressure;Samples;Min_cycle;Max_cycle;Signal;HPM_P1;HPM_P2
2023/11/28 00:01:05;;;;;;;21.90;10.37;;;;;;;;;;5009835;28;20037;-69
2023/11/28 00:03:32;;;;;;;26.77;10.93;;;;;;;;;;5025153;28;20128;-71
2023/11/28 00:05:57;;;;;;;18.83;10.07;;;;;;;;;;5007801;28;20045;-70
2023/11/28 00:08:23;;;;;;;18.20;10.47;;;;;;;;;;5008406;28;20037;-70
2023/11/28 00:10:49;;;;;;;17.33;9.90;;;;;;;;;;5009869;28;20026;-70
2023/11/28 00:13:14;;;;;;;18.37;10.57;;;;;;;;;;4997590;28;20022;-71
2023/11/28 00:15:42;;;;;;;16.63;9.27;;;;;;;;;;4988985;28;20454;-72
2023/11/28 00:18:07;;;;;;;16.00;8.83;;;;;;;;;;4988630;28;20041;-70
2023/11/28 00:20:33;;;;;;;18.33;9.70;;;;;;;;;;4990312;28;20034;-70
2023/11/28 00:22:58;;;;;;;21.23;10.30;;;;;;;;;;4988564;28;20026;-70
2023/11/28 00:25:24;;;;;;;19.43;8.80;;;;;;;;;;4989949;28;20081;-70
2023/11/28 00:27:50;;;;;;;15.43;8.40;;;;;;;;;;4988503;28;20033;-70
2023/11/28 00:30:16;;;;;;;17.20;9.77;;;;;;;;;;4988511;28;20478;-70
2023/11/28 00:32:42;;;;;;;14.87;8.40;;;;;;;;;;4988941;28;20030;-71
2023/11/28 00:35:08;;;;;;;20.67;9.07;;;;;;;;;;4993345;28;20030;-70
2023/11/28 00:37:34;;;;;;;13.70;8.93;;;;;;;;;;4993313;28;20464;-71
2023/11/28 00:40:00;;;;;;;16.77;9.50;;;;;;;;;;4990551;28;20511;-70
2023/11/28 00:42:25;;;;;;;15.60;8.60;;;;;;;;;;4989827;28;20034;-70
2023/11/28 00:44:52;;;;;;;16.73;9.73;;;;;;;;;;4989925;28;20113;-71
2023/11/28 00:47:18;;;;;;;18.47;9.97;;;;;;;;;;4989915;28;20548;-69
2023/11/28 00:49:44;;;;;;;18.33;9.90;;;;;;;;;;4991951;28;20113;-69
2023/11/28 00:52:10;;;;;;;18.17;8.80;;;;;;;;;;4989928;28;20088;-69
2023/11/28 00:54:38;;;;;;;21.87;9.40;;;;;;;;;;4996128;28;20029;-69
2023/11/28 00:57:05;;;;;;;20.20;9.40;;;;;;;;;;5010437;28;20514;-71
2023/11/28 00:59:31;;;;;;;16.00;8.73;;;;;;;;;;5007809;28;20029;-70
2023/11/28 01:01:57;;;;;;;17.03;9.30;;;;;;;;;;4995477;28;20027;-72
2023/11/28 01:04:22;;;;;;;16.87;9.30;;;;;;;;;;4988243;28;20053;-72
2023/11/28 01:06:48;;;;;;;15.23;9.60;;;;;;;;;;4989927;28;20034;-69
2023/11/28 01:09:14;;;;;;;20.20;10.17;;;;;;;;;;4996834;28;20378;-69
2023/11/28 01:11:41;;;;;;;15.50;9.23;;;;;;;;;;5008063;28;20034;-70
2023/11/28 01:14:07;;;;;;;13.17;8.33;;;;;;;;;;5009156;28;20124;-70
2023/11/28 01:16:34;;;;;;;14.43;8.60;;;;;;;;;;5024250;28;20506;-70
2023/11/28 01:19:00;;;;;;;15.73;8.53;;;;;;;;;;5010794;28;20136;-70
2023/11/28 01:21:25;;;;;;;12.60;8.20;;;;;;;;;;5013118;28;20113;-70
2023/11/28 01:23:51;;;;;;;12.47;7.70;;;;;;;;;;5011020;28;20065;-71
2023/11/28 01:26:16;;;;;;;15.20;8.30;;;;;;;;;;5011592;28;20425;-70
2023/11/28 01:28:42;;;;;;;13.70;7.90;;;;;;;;;;5011556;28;20096;-71
2023/11/28 01:31:11;;;;;;;14.37;7.97;;;;;;;;;;5011530;28;20073;-69
2023/11/28 01:33:37;;;;;;;15.83;7.67;;;;;;;;;;5013027;28;20030;-70
2023/11/28 01:36:06;;;;;;;13.33;7.83;;;;;;;;;;5011490;28;20068;-70
2023/11/28 01:38:32;;;;;;;15.13;7.97;;;;;;;;;;5000748;28;20038;-69
2023/11/28 01:40:59;;;;;;;16.23;8.57;;;;;;;;;;4991936;28;20382;-71
2023/11/28 01:43:29;;;;;;;16.43;9.23;;;;;;;;;;4991809;28;20152;-70
2023/11/28 01:45:55;;;;;;;14.20;7.73;;;;;;;;;;4991747;28;20030;-70
2023/11/28 01:48:22;;;;;;;17.30;8.67;;;;;;;;;;4991716;28;20117;-70
2023/11/28 01:50:49;;;;;;;15.93;7.70;;;;;;;;;;4992978;28;20026;-70
2023/11/28 01:53:19;;;;;;;17.97;9.17;;;;;;;;;;5011012;28;20073;-69
2023/11/28 01:55:45;;;;;;;13.90;7.53;;;;;;;;;;5011159;28;20068;-70
2023/11/28 01:58:11;;;;;;;14.27;8.43;;;;;;;;;;5027301;28;20042;-69
2023/11/28 02:00:36;;;;;;;15.70;8.43;;;;;;;;;;5009637;28;20112;-70
2023/11/28 02:03:03;;;;;;;14.93;8.97;;;;;;;;;;4990974;28;20535;-71
2023/11/28 02:05:29;;;;;;;19.60;8.27;;;;;;;;;;4991452;28;20041;-69
2023/11/28 02:07:55;;;;;;;16.67;8.10;;;;;;;;;;4992764;28;20030;-70
2023/11/28 02:10:21;;;;;;;14.83;8.07;;;;;;;;;;4992563;28;20041;-70
2023/11/28 02:12:47;;;;;;;12.40;7.67;;;;;;;;;;5009038;28;20022;-68
2023/11/28 02:15:13;;;;;;;13.03;7.63;;;;;;;;;;4990807;28;20046;-69
2023/11/28 02:17:38;;;;;;;13.80;7.63;;;;;;;;;;4991178;28;20041;-69
2023/11/28 02:20:04;;;;;;;12.80;8.17;;;;;;;;;;4995951;28;20038;-71
2023/11/28 02:22:31;;;;;;;15.87;7.87;;;;;;;;;;5011556;28;20509;-70
2023/11/28 02:24:58;;;;;;;17.30;8.90;;;;;;;;;;5010415;28;20112;-69
2023/11/28 02:27:24;;;;;;;13.60;7.83;;;;;;;;;;5010389;28;20041;-71
2023/11/28 02:29:49;;;;;;;14.80;7.83;;;;;;;;;;5011343;28;20030;-70
2023/11/28 02:32:15;;;;;;;10.93;7.17;;;;;;;;;;5010303;28;20505;-70
2023/11/28 02:34:40;;;;;;;16.80;7.40;;;;;;;;;;5005311;28;20181;-69
2023/11/28 02:37:07;;;;;;;15.60;7.90;;;;;;;;;;4991937;28;20105;-71
2023/11/28 02:39:33;;;;;;;14.80;7.47;;;;;;;;;;4992059;28;20030;-70
2023/11/28 02:41:59;;;;;;;13.17;7.17;;;;;;;;;;4991916;28;20470;-71
2023/11/28 02:44:24;;;;;;;10.90;7.63;;;;;;;;;;4990296;28;20549;-70
2023/11/28 02:46:50;;;;;;;15.93;8.03;;;;;;;;;;4990410;28;20559;-69
2023/11/28 02:49:15;;;;;;;12.83;7.23;;;;;;;;;;5002630;28;20044;-71
2023/11/28 02:51:41;;;;;;;11.90;6.97;;;;;;;;;;5009981;28;20501;-70
2023/11/28 02:54:06;;;;;;;14.10;7.77;;;;;;;;;;5009780;28;20044;-70
2023/11/28 02:56:32;;;;;;;11.63;6.57;;;;;;;;;;5011521;28;20030;-71
2023/11/28 02:58:57;;;;;;;12.43;7.10;;;;;;;;;;5009963;28;20032;-69
2023/11/28 03:01:23;;;;;;;13.83;7.00;;;;;;;;;;5003696;28;20037;-70
2023/11/28 03:03:49;;;;;;;13.50;6.27;;;;;;;;;;5008147;28;20053;-68
2023/11/28 03:06:15;;;;;;;15.00;7.57;;;;;;;;;;5016591;28;20101;-70
2023/11/28 03:08:40;;;;;;;14.30;7.33;;;;;;;;;;5012921;28;20449;-70
2023/11/28 03:11:08;;;;;;;11.97;7.23;;;;;;;;;;5010952;28;20134;-71
2023/11/28 03:13:34;;;;;;;10.63;6.93;;;;;;;;;;5009746;28;20540;-70
2023/11/28 03:16:01;;;;;;;11.43;6.83;;;;;;;;;;5009522;28;20290;-70
2023/11/28 03:18:26;;;;;;;14.00;6.80;;;;;;;;;;4991855;28;20038;-69
2023/11/28 03:20:52;;;;;;;12.03;6.90;;;;;;;;;;4991379;28;20113;-71
2023/11/28 03:23:17;;;;;;;9.77;5.73;;;;;;;;;;4991131;28;20457;-71
2023/11/28 03:25:43;;;;;;;13.70;6.57;;;;;;;;;;4989783;28;20038;-71
2023/11/28 03:28:08;;;;;;;13.23;6.00;;;;;;;;;;5006075;28;20030;-71
2023/11/28 03:30:34;;;;;;;12.10;5.70;;;;;;;;;;4991298;28;20038;-70
2023/11/28 03:32:59;;;;;;;12.80;7.30;;;;;;;;;;5004060;28;20065;-70
2023/11/28 03:35:28;;;;;;;13.30;5.83;;;;;;;;;;4989443;28;20493;-69
2023/11/28 03:37:54;;;;;;;12.10;6.70;;;;;;;;;;4991173;28;20026;-70
2023/11/28 03:40:20;;;;;;;15.73;6.53;;;;;;;;;;5005552;28;20453;-70
2023/11/28 03:42:45;;;;;;;11.57;5.30;;;;;;;;;;4988970;28;20061;-70
2023/11/28 03:45:12;;;;;;;9.93;6.13;;;;;;;;;;4995497;28;20040;-70
2023/11/28 03:47:39;;;;;;;9.33;5.73;;;;;;;;;;5010942;28;20047;-70
2023/11/28 03:50:05;;;;;;;10.53;6.63;;;;;;;;;;5008674;28;20395;-70
2023/11/28 03:52:31;;;;;;;13.87;6.40;;;;;;;;;;5008560;28;20028;-70
2023/11/28 03:54:57;;;;;;;13.37;6.47;;;;;;;;;;5010160;28;20045;-69
2023/11/28 03:57:22;;;;;;;9.43;5.93;;;;;;;;;;5008617;28;20033;-70
2023/11/28 03:59:48;;;;;;;11.33;6.07;;;;;;;;;;5001083;28;20200;-70
2023/11/28 04:02:14;;;;;;;12.87;6.20;;;;;;;;;;5000205;28;20042;-70
2023/11/28 04:04:39;;;;;;;12.63;6.80;;;;;;;;;;4989130;28;20034;-69
2023/11/28 04:07:05;;;;;;;11.07;6.17;;;;;;;;;;4988996;28;20035;-72
2023/11/28 04:09:31;;;;;;;9.30;6.37;;;;;;;;;;4989241;28;20072;-70
2023/11/28 04:11:56;;;;;;;9.50;5.53;;;;;;;;;;4990441;28;20035;-70
2023/11/28 04:14:21;;;;;;;13.00;7.33;;;;;;;;;;4988810;28;20038;-70
2023/11/28 04:16:47;;;;;;;9.73;6.20;;;;;;;;;;4990172;28;20034;-71
2023/11/28 04:19:14;;;;;;;9.33;5.77;;;;;;;;;;4989782;28;20022;-72
2023/11/28 04:21:40;;;;;;;12.17;7.33;;;;;;;;;;4988990;28;20109;-73
2023/11/28 04:24:05;;;;;;;10.20;6.13;;;;;;;;;;5009671;28;20097;-71
2023/11/28 04:26:31;;;;;;;10.57;5.90;;;;;;;;;;5009558;28;20490;-70
2023/11/28 04:28:56;;;;;;;11.03;5.83;;;;;;;;;;5004528;28;20029;-70
2023/11/28 04:31:22;;;;;;;10.83;5.70;;;;;;;;;;4989799;28;20034;-70
2023/11/28 04:33:48;;;;;;;14.70;6.73;;;;;;;;;;4989897;28;20446;-71
2023/11/28 04:36:14;;;;;;;11.10;5.60;;;;;;;;;;4989918;28;20034;-69
2023/11/28 04:38:41;;;;;;;10.43;6.17;;;;;;;;;;4988944;28;20113;-69
2023/11/28 04:41:08;;;;;;;8.13;5.60;;;;;;;;;;4990367;28;20030;-69
2023/11/28 04:43:34;;;;;;;12.27;6.23;;;;;;;;;;5005738;28;20101;-70
2023/11/28 04:46:01;;;;;;;13.00;6.10;;;;;;;;;;5008633;28;20620;-70
2023/11/28 04:48:26;;;;;;;12.87;6.07;;;;;;;;;;5009459;28;20028;-70
2023/11/28 04:50:52;;;;;;;10.20;5.73;;;;;;;;;;5007843;28;20034;-70
2023/11/28 04:53:18;;;;;;;13.53;5.53;;;;;;;;;;5007429;28;20029;-71
2023/11/28 04:55:43;;;;;;;10.20;6.40;;;;;;;;;;5008428;28;20096;-70
2023/11/28 04:58:09;;;;;;;12.63;7.07;;;;;;;;;;5007724;28;20029;-70
2023/11/28 05:00:34;;;;;;;11.47;6.27;;;;;;;;;;5006954;28;20037;-70
2023/11/28 05:03:00;;;;;;;9.40;5.10;;;;;;;;;;4989525;28;20076;-69
2023/11/28 05:05:25;;;;;;;12.30;6.47;;;;;;;;;;4987933;28;20062;-69
2023/11/28 05:07:50;;;;;;;8.93;6.17;;;;;;;;;;4988047;28;20140;-70
2023/11/28 05:10:16;;;;;;;10.90;5.73;;;;;;;;;;4989810;28;20471;-70
2023/11/28 05:12:42;;;;;;;13.87;5.47;;;;;;;;;;4989698;28;20033;-69
2023/11/28 05:15:08;;;;;;;12.63;6.37;;;;;;;;;;4989485;28;20057;-71
2023/11/28 05:17:33;;;;;;;10.70;5.93;;;;;;;;;;4989744;28;20248;-68
2023/11/28 05:19:59;;;;;;;14.77;5.70;;;;;;;;;;4990858;28;20030;-72
2023/11/28 05:22:24;;;;;;;7.90;5.60;;;;;;;;;;5007143;28;20040;-69
2023/11/28 05:24:50;;;;;;;12.30;5.53;;;;;;;;;;4998932;28;20018;-70
2023/11/28 05:27:15;;;;;;;8.90;5.23;;;;;;;;;;5009359;28;20034;-70
2023/11/28 05:29:41;;;;;;;9.17;6.00;;;;;;;;;;5010363;28;20415;-70
2023/11/28 05:32:06;;;;;;;9.23;5.43;;;;;;;;;;5009868;28;20667;-70
2023/11/28 05:34:32;;;;;;;14.67;6.13;;;;;;;;;;5008470;28;20041;-68
2023/11/28 05:36:58;;;;;;;9.13;5.77;;;;;;;;;;5007626;28;20021;-70
2023/11/28 05:39:23;;;;;;;15.23;7.43;;;;;;;;;;5006843;28;20040;-69
2023/11/28 05:41:49;;;;;;;9.43;5.93;;;;;;;;;;5009063;28;20425;-70
2023/11/28 05:44:14;;;;;;;12.90;7.00;;;;;;;;;;5008586;28;20434;-72
2023/11/28 05:46:40;;;;;;;10.67;6.43;;;;;;;;;;5009178;28;20100;-70
2023/11/28 05:49:05;;;;;;;9.70;5.50;;;;;;;;;;5007761;28;20029;-70
2023/11/28 05:51:31;;;;;;;12.27;6.23;;;;;;;;;;5008899;28;20081;-71
2023/11/28 05:53:59;;;;;;;10.03;5.87;;;;;;;;;;4997435;28;20399;-71
2023/11/28 05:56:25;;;;;;;12.47;7.57;;;;;;;;;;4987693;28;20541;-70
2023/11/28 05:58:50;;;;;;;14.00;7.23;;;;;;;;;;4998131;28;20035;-71
2023/11/28 06:01:16;;;;;;;13.60;6.50;;;;;;;;;;5010982;28;20039;-71
2023/11/28 06:03:41;;;;;;;10.17;6.00;;;;;;;;;;5005639;28;20382;-70
2023/11/28 06:06:07;;;;;;;13.37;6.57;;;;;;;;;;5001569;28;20471;-70
2023/11/28 06:08:33;;;;;;;14.23;8.10;;;;;;;;;;5001515;28;20488;-70
2023/11/28 06:10:58;;;;;;;16.70;7.73;;;;;;;;;;4995949;28;20029;-72
2023/11/28 06:13:24;;;;;;;18.23;8.40;;;;;;;;;;5004279;28;20033;-70
2023/11/28 06:15:49;;;;;;;15.93;7.70;;;;;;;;;;5020299;28;20134;-71
2023/11/28 06:18:15;;;;;;;13.27;6.93;;;;;;;;;;5022793;28;20563;-69
2023/11/28 06:20:41;;;;;;;15.33;7.87;;;;;;;;;;5012168;28;20029;-69
2023/11/28 06:23:07;;;;;;;12.70;8.83;;;;;;;;;;5019150;28;20037;-71
2023/11/28 06:25:33;;;;;;;16.43;8.87;;;;;;;;;;4995584;28;20151;-69
2023/11/28 06:27:58;;;;;;;22.97;11.13;;;;;;;;;;5017161;28;20534;-71
2023/11/28 06:30:25;;;;;;;14.37;8.40;;;;;;;;;;5004646;28;20116;-70
2023/11/28 06:32:51;;;;;;;13.40;7.60;;;;;;;;;;4997867;28;20439;-70
2023/11/28 06:35:17;;;;;;;13.83;7.43;;;;;;;;;;5015673;28;20445;-72
2023/11/28 06:37:44;;;;;;;14.07;7.07;;;;;;;;;;4999801;28;20034;-70
2023/11/28 06:40:11;;;;;;;14.13;7.57;;;;;;;;;;5002090;28;20056;-70
2023/11/28 06:42:37;;;;;;;14.67;8.77;;;;;;;;;;5007646;28;20133;-70
2023/11/28 06:45:05;;;;;;;13.00;6.83;;;;;;;;;;5003440;28;20112;-71
2023/11/28 06:47:31;;;;;;;12.73;7.57;;;;;;;;;;5003608;28;20756;-71
2023/11/28 06:49:57;;;;;;;12.30;7.77;;;;;;;;;;4998936;28;20695;-70
2023/11/28 06:52:22;;;;;;;12.93;7.53;;;;;;;;;;5000983;28;20113;-71
2023/11/28 06:54:48;;;;;;;15.23;7.57;;;;;;;;;;5003280;28;20112;-69
2023/11/28 06:57:13;;;;;;;13.80;7.53;;;;;;;;;;5003331;28;20061;-69
2023/11/28 06:59:39;;;;;;;10.57;6.73;;;;;;;;;;5013696;28;20022;-71
2023/11/28 07:02:04;;;;;;;13.33;7.23;;;;;;;;;;5009895;28;20092;-69
2023/11/28 07:04:30;;;;;;;9.13;6.03;;;;;;;;;;4997651;28;20031;-68
2023/11/28 07:06:56;;;;;;;11.60;6.57;;;;;;;;;;5006502;28;20033;-68
2023/11/28 07:09:22;;;;;;;10.43;6.10;;;;;;;;;;4998281;28;20033;-70
2023/11/28 07:11:53;;;;;;;13.90;7.83;;;;;;;;;;5014746;28;20030;-70
2023/11/28 07:14:20;;;;;;;12.90;6.67;;;;;;;;;;5017437;28;20389;-70
2023/11/28 07:16:47;;;;;;;11.40;7.23;;;;;;;;;;5004263;28;20112;-70
2023/11/28 07:19:13;;;;;;;15.70;8.50;;;;;;;;;;5020510;28;20038;-68
2023/11/28 07:21:40;;;;;;;18.27;8.27;;;;;;;;;;5012755;28;20037;-70
2023/11/28 07:24:07;;;;;;;11.50;7.43;;;;;;;;;;5012481;28;20043;-68
2023/11/28 07:26:34;;;;;;;11.53;7.10;;;;;;;;;;5004360;28;20037;-71
2023/11/28 07:29:03;;;;;;;15.07;7.50;;;;;;;;;;5000499;28;20029;-70
2023/11/28 07:31:29;;;;;;;14.00;7.20;;;;;;;;;;5008442;28;20525;-69
2023/11/28 07:33:55;;;;;;;15.83;7.83;;;;;;;;;;5004995;28;20483;-69
2023/11/28 07:36:21;;;;;;;12.60;6.93;;;;;;;;;;4995403;28;20036;-73
2023/11/28 07:38:48;;;;;;;16.53;7.47;;;;;;;;;;5005906;28;20026;-70
2023/11/28 07:41:22;;;;;;;14.63;7.80;;;;;;;;;;5002412;28;20258;-71
2023/11/28 07:43:53;;;;;;;15.67;9.00;;;;;;;;;;4994752;28;20041;-70
2023/11/28 07:46:23;;;;;;;17.57;8.60;;;;;;;;;;5019910;28;20037;-69
2023/11/28 07:48:49;;;;;;;16.70;8.67;;;;;;;;;;4997364;28;20034;-69
2023/11/28 07:51:15;;;;;;;14.63;7.90;;;;;;;;;;5002798;28;20044;-70
2023/11/28 07:53:43;;;;;;;18.43;8.90;;;;;;;;;;5007900;28;20021;-70
2023/11/28 07:56:09;;;;;;;16.73;7.97;;;;;;;;;;5005351;28;20134;-70
2023/11/28 07:58:36;;;;;;;20.40;9.40;;;;;;;;;;5010972;28;20068;-70
2023/11/28 08:01:03;;;;;;;24.90;10.10;;;;;;;;;;5014129;28;20178;-72
2023/11/28 08:03:29;;;;;;;16.63;8.23;;;;;;;;;;4998890;28;20061;-70
2023/11/28 08:06:06;;;;;;;18.67;11.83;;;;;;;;;;5002270;28;20030;-71
2023/11/28 08:09:12;;;;;;;12.55;7.95;;;;;;;;;;5021028;28;20034;-71
2023/11/28 08:11:43;;;;;;;16.57;8.60;;;;;;;;;;5009134;28;20029;-72
2023/11/28 08:14:10;;;;;;;15.27;8.80;;;;;;;;;;5004437;28;20053;-73
2023/11/28 08:16:36;;;;;;;16.00;8.77;;;;;;;;;;5005206;28;20057;-70
2023/11/28 08:19:03;;;;;;;19.63;8.27;;;;;;;;;;5007752;28;20065;-72
2023/11/28 08:21:31;;;;;;;15.47;8.23;;;;;;;;;;5010328;28;20408;-69
2023/11/28 08:23:58;;;;;;;17.73;8.70;;;;;;;;;;5008745;28;20122;-70
2023/11/28 08:26:25;;;;;;;13.13;7.50;;;;;;;;;;5004849;28;20038;-70
2023/11/28 08:28:55;;;;;;;14.40;8.00;;;;;;;;;;5013240;28;20378;-68
2023/11/28 08:31:23;;;;;;;14.47;8.27;;;;;;;;;;5008414;28;20065;-67
2023/11/28 08:33:49;;;;;;;16.07;8.63;;;;;;;;;;5012455;28;20037;-71
2023/11/28 08:36:16;;;;;;;21.00;10.83;;;;;;;;;;5007938;28;20282;-72
2023/11/28 08:38:42;;;;;;;22.57;10.33;;;;;;;;;;5001882;28;20414;-69
2023/11/28 08:41:11;;;;;;;27.37;11.97;;;;;;;;;;5014456;28;20033;-71
2023/11/28 08:43:38;;;;;;;22.60;11.63;;;;;;;;;;5010971;28;20038;-72
2023/11/28 08:46:09;;;;;;;35.50;13.10;;;;;;;;;;5009952;28;20042;-71
2023/11/28 08:48:46;;;;;;;29.93;14.63;;;;;;;;;;5030807;28;20029;-72
2023/11/28 08:51:21;;;;;;;30.40;12.93;;;;;;;;;;5017665;28;20032;-74
2023/11/28 08:53:47;;;;;;;31.13;12.90;;;;;;;;;;5009796;28;20022;-72
2023/11/28 08:56:13;;;;;;;27.87;12.33;;;;;;;;;;5009682;28;20045;-70
2023/11/28 08:58:58;;;;;;;25.33;12.10;;;;;;;;;;5011999;28;20044;-71
2023/11/28 09:01:25;;;;;;;28.70;12.53;;;;;;;;;;5009701;28;20096;-70
2023/11/28 09:03:53;;;;;;;22.17;10.00;;;;;;;;;;5003759;28;20037;-73
2023/11/28 09:06:19;;;;;;;24.80;11.53;;;;;;;;;;5011917;28;20038;-70
2023/11/28 09:08:48;;;;;;;21.93;9.57;;;;;;;;;;5037352;28;20044;-71
2023/11/28 09:11:15;;;;;;;18.30;9.20;;;;;;;;;;5010362;28;20121;-69
2023/11/28 09:13:42;;;;;;;23.13;9.40;;;;;;;;;;5004197;28;20065;-69
2023/11/28 09:16:20;;;;;;;21.10;9.10;;;;;;;;;;5007763;28;20046;-70
2023/11/28 09:18:50;;;;;;;24.10;10.27;;;;;;;;;;5006526;28;20048;-70
2023/11/28 09:21:19;;;;;;;22.20;9.40;;;;;;;;;;5012977;28;20108;-70
2023/11/28 09:23:46;;;;;;;25.53;9.80;;;;;;;;;;5005937;28;20132;-69
2023/11/28 09:26:14;;;;;;;24.93;9.43;;;;;;;;;;4997771;28;20060;-68
2023/11/28 09:28:40;;;;;;;19.10;9.83;;;;;;;;;;4996728;28;20066;-68
2023/11/28 09:31:06;;;;;;;21.27;8.50;;;;;;;;;;4998389;28;20070;-71
2023/11/28 09:33:34;;;;;;;19.93;9.30;;;;;;;;;;5003512;28;20026;-69
2023/11/28 09:36:04;;;;;;;23.27;9.60;;;;;;;;;;4994310;28;20034;-70
2023/11/28 09:38:35;;;;;;;17.70;8.73;;;;;;;;;;5000257;28;20271;-70
2023/11/28 09:41:01;;;;;;;18.90;8.90;;;;;;;;;;5024257;28;20033;-69
2023/11/28 09:43:27;;;;;;;19.03;7.90;;;;;;;;;;5006687;28;20470;-70
2023/11/28 09:46:05;;;;;;;16.80;8.87;;;;;;;;;;4999808;28;20030;-73
2023/11/28 09:48:33;;;;;;;13.90;6.57;;;;;;;;;;5006374;28;20102;-70
2023/11/28 09:51:03;;;;;;;17.87;7.73;;;;;;;;;;5003929;28;20037;-70
2023/11/28 09:53:33;;;;;;;17.10;7.67;;;;;;;;;;4993000;28;20589;-70
2023/11/28 09:56:03;;;;;;;15.43;7.47;;;;;;;;;;4994630;28;20026;-70
2023/11/28 09:58:31;;;;;;;16.23;7.00;;;;;;;;;;5009170;28;20026;-70
2023/11/28 10:01:06;;;;;;;17.17;7.90;;;;;;;;;;5005241;28;20044;-71
2023/11/28 10:03:32;;;;;;;18.47;8.97;;;;;;;;;;5003427;28;20030;-68
2023/11/28 10:05:59;;;;;;;18.87;8.70;;;;;;;;;;5000396;28;20431;-70
2023/11/28 10:08:28;;;;;;;20.37;8.97;;;;;;;;;;5007038;28;20579;-71
2023/11/28 10:11:00;;;;;;;20.00;9.40;;;;;;;;;;5022709;28;20479;-70
2023/11/28 10:13:27;;;;;;;24.00;10.80;;;;;;;;;;5007117;28;20316;-70
2023/11/28 10:15:54;;;;;;;20.27;10.37;;;;;;;;;;5013330;28;20072;-70
2023/11/28 10:18:21;;;;;;;25.30;10.87;;;;;;;;;;5010352;28;20034;-69
2023/11/28 10:20:53;;;;;;;23.63;10.17;;;;;;;;;;5012186;28;20034;-70
2023/11/28 10:23:22;;;;;;;26.07;9.07;;;;;;;;;;5015587;28;20073;-72
2023/11/28 10:25:49;;;;;;;21.30;9.77;;;;;;;;;;5007280;28;20120;-71
2023/11/28 10:28:16;;;;;;;19.20;8.23;;;;;;;;;;5006184;28;20030;-69
2023/11/28 10:30:42;;;;;;;20.27;7.97;;;;;;;;;;4998863;28;20062;-71
2023/11/28 10:33:11;;;;;;;19.87;8.67;;;;;;;;;;5007488;28;20033;-72
2023/11/28 10:35:42;;;;;;;13.83;6.90;;;;;;;;;;4996772;28;20040;-72
2023/11/28 10:38:13;;;;;;;19.67;8.03;;;;;;;;;;5003736;28;20123;-71
2023/11/28 10:40:41;;;;;;;16.17;7.17;;;;;;;;;;5004702;28;20040;-70
2023/11/28 10:43:09;;;;;;;14.00;6.80;;;;;;;;;;5006856;28;20158;-70
2023/11/28 10:45:37;;;;;;;15.90;5.93;;;;;;;;;;5002616;28;20026;-71
2023/11/28 10:48:04;;;;;;;15.00;6.70;;;;;;;;;;5005023;28;20392;-73
2023/11/28 10:50:30;;;;;;;14.03;6.00;;;;;;;;;;4997741;28;20030;-71
2023/11/28 10:52:58;;;;;;;13.93;6.43;;;;;;;;;;5004300;28;20120;-72
2023/11/28 10:55:26;;;;;;;15.73;6.17;;;;;;;;;;4995536;28;20038;-71
2023/11/28 10:58:04;;;;;;;15.67;7.10;;;;;;;;;;5003888;28;20041;-71
2023/11/28 11:00:38;;;;;;;10.63;5.70;;;;;;;;;;5023812;28;20048;-70
2023/11/28 11:03:07;;;;;;;11.60;5.90;;;;;;;;;;5003070;28;20038;-71
2023/11/28 11:05:33;;;;;;;12.47;6.37;;;;;;;;;;5003271;28;20088;-71
2023/11/28 11:07:58;;;;;;;14.47;6.37;;;;;;;;;;5001876;28;20038;-73
2023/11/28 11:10:26;;;;;;;12.47;5.40;;;;;;;;;;5005885;28;20034;-73
2023/11/28 11:13:04;;;;;;;9.13;5.47;;;;;;;;;;5000363;28;20030;-71
2023/11/28 11:16:18;;;;;;;10.57;5.70;;;;;;;;;;5012741;28;20171;-70
2023/11/28 11:18:48;;;;;;;12.67;6.27;;;;;;;;;;5010537;28;20565;-71
2023/11/28 11:21:20;;;;;;;11.63;5.03;;;;;;;;;;5000687;28;20033;-70
2023/11/28 11:23:49;;;;;;;10.60;6.22;;;;;;;;;;5030353;28;20375;-70
2023/11/28 11:26:16;;;;;;;12.77;6.03;;;;;;;;;;5021403;28;20566;-71
2023/11/28 11:28:42;;;;;;;11.17;6.37;;;;;;;;;;5021572;28;20176;-69
2023/11/28 11:31:13;;;;;;;11.57;6.37;;;;;;;;;;4998086;28;20116;-71
2023/11/28 11:33:39;;;;;;;13.82;6.95;;;;;;;;;;5001048;28;20037;-70
2023/11/28 11:36:13;;;;;;;16.53;8.17;;;;;;;;;;5009958;28;20025;-72
2023/11/28 11:38:40;;;;;;;12.70;6.23;;;;;;;;;;5003567;28;20204;-70
2023/11/28 11:41:11;;;;;;;14.23;7.20;;;;;;;;;;4994204;28;20571;-71
2023/11/28 11:43:41;;;;;;;12.40;6.17;;;;;;;;;;4998251;28;20038;-70
2023/11/28 11:46:13;;;;;;;12.17;7.30;;;;;;;;;;4998388;28;20048;-70
2023/11/28 11:48:41;;;;;;;13.87;8.00;;;;;;;;;;5003857;28;20038;-69
2023/11/28 11:51:11;;;;;;;19.10;8.50;;;;;;;;;;4996796;28;20030;-71
2023/11/28 11:53:43;;;;;;;18.87;9.70;;;;;;;;;;5002038;28;20514;-70
2023/11/28 11:56:09;;;;;;;22.80;10.95;;;;;;;;;;4996273;28;20026;-69
2023/11/28 11:58:36;;;;;;;23.13;11.57;;;;;;;;;;5025673;28;20033;-69
2023/11/28 12:01:04;;;;;;;28.73;13.83;;;;;;;;;;5009662;28;20022;-73
2023/11/28 12:03:30;;;;;;;22.03;12.00;;;;;;;;;;5008717;28;20069;-71
2023/11/28 12:05:58;;;;;;;23.27;12.20;;;;;;;;;;5004422;28;20080;-71
2023/11/28 12:08:24;;;;;;;29.77;14.30;;;;;;;;;;5002302;28;20041;-72
2023/11/28 12:11:11;;;;;;;28.77;13.17;;;;;;;;;;5004898;28;20061;-71
2023/11/28 12:13:40;;;;;;;26.33;14.23;;;;;;;;;;5025062;28;20042;-69
2023/11/28 12:16:07;;;;;;;28.40;13.30;;;;;;;;;;4982843;28;20053;-71
2023/11/28 12:18:34;;;;;;;26.63;13.50;;;;;;;;;;5000243;28;20034;-70
2023/11/28 12:21:03;;;;;;;28.20;14.03;;;;;;;;;;5030345;28;20064;-74
2023/11/28 12:23:28;;;;;;;29.80;15.27;;;;;;;;;;5002875;28;20387;-72
2023/11/28 12:25:57;;;;;;;27.77;13.73;;;;;;;;;;5002082;28;20030;-72
2023/11/28 12:28:27;;;;;;;27.27;14.97;;;;;;;;;;5004902;28;20041;-71
2023/11/28 12:30:53;;;;;;;29.23;13.33;;;;;;;;;;4996235;28;20394;-72
2023/11/28 12:33:19;;;;;;;28.70;14.33;;;;;;;;;;5003200;28;20045;-71
2023/11/28 12:35:49;;;;;;;24.17;13.17;;;;;;;;;;5009860;28;20077;-71
2023/11/28 12:38:17;;;;;;;28.90;14.80;;;;;;;;;;5004544;28;20030;-69
2023/11/28 12:40:45;;;;;;;32.97;14.27;;;;;;;;;;5012488;28;20029;-72
2023/11/28 12:43:21;;;;;;;20.37;13.40;;;;;;;;;;5007836;28;20022;-71
2023/11/28 12:45:50;;;;;;;22.33;13.03;;;;;;;;;;5020530;28;20044;-71
2023/11/28 12:48:18;;;;;;;24.58;13.00;;;;;;;;;;5018865;28;20041;-70
2023/11/28 12:50:43;;;;;;;30.27;12.77;;;;;;;;;;5001873;28;20038;-73
2023/11/28 12:53:26;;;;;;;24.77;12.77;;;;;;;;;;5023174;28;20116;-69
2023/11/28 12:55:51;;;;;;;22.92;12.13;;;;;;;;;;5007062;28;20045;-72
2023/11/28 12:58:21;;;;;;;22.67;11.90;;;;;;;;;;5005135;28;20038;-70
2023/11/28 13:00:47;;;;;;;24.00;12.00;;;;;;;;;;4999989;28;20056;-69
2023/11/28 13:03:13;;;;;;;25.50;13.00;;;;;;;;;;5005947;28;20510;-73
2023/11/28 13:05:45;;;;;;;26.65;12.40;;;;;;;;;;5011551;28;20046;-72
2023/11/28 13:08:11;;;;;;;25.33;12.77;;;;;;;;;;5023010;28;20056;-72
2023/11/28 13:10:37;;;;;;;24.93;12.67;;;;;;;;;;5007598;28;20497;-70
2023/11/28 13:13:03;;;;;;;24.63;11.30;;;;;;;;;;5021831;28;20121;-68
2023/11/28 13:15:29;;;;;;;22.20;11.00;;;;;;;;;;5002961;28;20121;-70
2023/11/28 13:17:55;;;;;;;22.10;11.50;;;;;;;;;;5027700;28;20079;-74
2023/11/28 13:20:22;;;;;;;24.23;12.73;;;;;;;;;;5004152;28;20034;-70
2023/11/28 13:22:48;;;;;;;26.20;12.33;;;;;;;;;;5004161;28;20099;-72
2023/11/28 13:25:14;;;;;;;23.53;11.67;;;;;;;;;;5000356;28;20663;-71
2023/11/28 13:27:42;;;;;;;21.73;13.50;;;;;;;;;;5008419;28;20084;-73
2023/11/28 13:30:08;;;;;;;25.90;12.53;;;;;;;;;;5002166;28;20083;-70
2023/11/28 13:32:34;;;;;;;21.33;12.63;;;;;;;;;;5004533;28;20503;-71
2023/11/28 13:35:00;;;;;;;24.60;12.63;;;;;;;;;;5007768;28;20076;-69
2023/11/28 13:37:27;;;;;;;21.93;11.87;;;;;;;;;;5006133;28;20029;-72
2023/11/28 13:39:53;;;;;;;23.77;13.10;;;;;;;;;;4990677;28;20041;-70
2023/11/28 13:42:19;;;;;;;25.67;11.63;;;;;;;;;;5019153;28;20064;-71
2023/11/28 13:44:45;;;;;;;28.53;13.43;;;;;;;;;;5010502;28;20038;-70
2023/11/28 13:47:13;;;;;;;22.17;12.17;;;;;;;;;;5002170;28;20049;-70
2023/11/28 13:49:38;;;;;;;34.20;14.37;;;;;;;;;;5002874;28;20500;-71
2023/11/28 13:52:06;;;;;;;25.23;12.67;;;;;;;;;;5008735;28;20112;-71
2023/11/28 13:54:33;;;;;;;27.17;12.77;;;;;;;;;;5019880;28;20042;-71
2023/11/28 13:56:59;;;;;;;31.93;15.23;;;;;;;;;;5015872;28;20026;-74
2023/11/28 13:59:29;;;;;;;24.63;13.10;;;;;;;;;;4999400;28;20041;-71
2023/11/28 14:01:56;;;;;;;25.43;12.63;;;;;;;;;;5009651;28;20041;-69
2023/11/28 14:04:22;;;;;;;27.27;12.53;;;;;;;;;;5000839;28;20031;-71
2023/11/28 14:06:49;;;;;;;25.27;11.83;;;;;;;;;;5024858;28;20403;-74
2023/11/28 14:09:15;;;;;;;21.23;11.17;;;;;;;;;;4990892;28;20477;-72
2023/11/28 14:11:42;;;;;;;20.47;11.10;;;;;;;;;;4990251;28;20036;-71
2023/11/28 14:14:08;;;;;;;25.60;12.90;;;;;;;;;;5004414;28;20022;-72
2023/11/28 14:16:34;;;;;;;26.07;11.53;;;;;;;;;;4999327;28;20064;-72
2023/11/28 14:19:00;;;;;;;23.67;12.47;;;;;;;;;;4993863;28;20034;-71
2023/11/28 14:21:27;;;;;;;21.40;12.30;;;;;;;;;;5011117;28;20458;-72
2023/11/28 14:23:54;;;;;;;17.57;10.73;;;;;;;;;;5004184;28;20025;-72
2023/11/28 14:26:21;;;;;;;21.07;10.67;;;;;;;;;;5017662;28;20060;-70
2023/11/28 14:28:46;;;;;;;24.37;12.20;;;;;;;;;;5008855;28;20033;-74